sensor_id;sensor_type;location;lat;lon;timestamp;P1;durP1;ratioP1;P2;durP2;ratioP2
14118;SDS011;7138;49.246;9.100;2023-04-01T00:00:22;4.05;;;0.98;;
14118;SDS011;7138;49.246;9.100;2023-04-01T00:02:48;4.10;;;1.25;;
14118;SDS011;7138;49.246;9.100;2023-04-01T00:05:15;5.80;;;0.52;;
14118;SDS011;7138;49.246;9.100;2023-04-01T00:07:44;4.88;;;0.50;;
14118;SDS011;7138;49.246;9.100;2023-04-01T00:10:10;4.22;;;0.50;;
14118;SDS011;7138;49.246;9.100;2023-04-01T00:12:39;6.03;;;0.65;;
14118;SDS011;7138;49.246;9.100;2023-04-01T00:15:07;2.35;;;0.50;;
14118;SDS011;7138;49.246;9.100;2023-04-01T00:17:36;3.75;;;0.52;;
14118;SDS011;7138;49.246;9.100;2023-04-01T00:20:02;2.83;;;0.50;;
14118;SDS011;7138;49.246;9.100;2023-04-01T00:22:29;2.55;;;0.40;;
14118;SDS011;7138;49.246;9.100;2023-04-01T00:24:55;1.65;;;0.40;;
14118;SDS011;7138;49.246;9.100;2023-04-01T00:27:21;3.17;;;0.73;;
14118;SDS011;7138;49.246;9.100;2023-04-01T00:29:48;3.10;;;0.47;;
14118;SDS011;7138;49.246;9.100;2023-04-01T00:32:14;3.83;;;0.57;;
14118;SDS011;7138;49.246;9.100;2023-04-01T00:34:40;5.30;;;0.52;;
14118;SDS011;7138;49.246;9.100;2023-04-01T00:37:06;5.18;;;0.90;;
14118;SDS011;7138;49.246;9.100;2023-04-01T00:39:33;3.75;;;0.52;;
14118;SDS011;7138;49.246;9.100;2023-04-01T00:42:01;2.28;;;0.50;;
14118;SDS011;7138;49.246;9.100;2023-04-01T00:44:30;4.28;;;0.70;;
14118;SDS011;7138;49.246;9.100;2023-04-01T00:47:00;6.47;;;0.98;;
14118;SDS011;7138;49.246;9.100;2023-04-01T00:49:27;4.88;;;0.70;;
14118;SDS011;7138;49.246;9.100;2023-04-01T00:51:58;4.97;;;0.70;;
14118;SDS011;7138;49.246;9.100;2023-04-01T00:54:28;6.93;;;0.82;;
14118;SDS011;7138;49.246;9.100;2023-04-01T00:56:58;2.95;;;0.73;;
14118;SDS011;7138;49.246;9.100;2023-04-01T00:59:29;6.60;;;0.80;;
14118;SDS011;7138;49.246;9.100;2023-04-01T01:04:28;8.32;;;0.85;;
14118;SDS011;7138;49.246;9.100;2023-04-01T01:06:57;6.38;;;0.88;;
14118;SDS011;7138;49.246;9.100;2023-04-01T01:09:39;3.70;;;0.60;;
14118;SDS011;7138;49.246;9.100;2023-04-01T01:12:18;6.05;;;0.77;;
14118;SDS011;7138;49.246;9.100;2023-04-01T01:14:50;7.57;;;0.98;;
14118;SDS011;7138;49.246;9.100;2023-04-01T01:17:32;7.20;;;1.15;;
14118;SDS011;7138;49.246;9.100;2023-04-01T01:26:32;4.78;;;0.77;;
14118;SDS011;7138;49.246;9.100;2023-04-01T01:29:34;5.53;;;0.75;;
14118;SDS011;7138;49.246;9.100;2023-04-01T01:32:30;8.25;;;1.15;;
14118;SDS011;7138;49.246;9.100;2023-04-01T01:35:27;4.78;;;0.70;;
14118;SDS011;7138;49.246;9.100;2023-04-01T01:38:01;2.80;;;0.50;;
14118;SDS011;7138;49.246;9.100;2023-04-01T01:40:33;4.65;;;0.70;;
14118;SDS011;7138;49.246;9.100;2023-04-01T01:43:03;5.10;;;0.70;;
14118;SDS011;7138;49.246;9.100;2023-04-01T01:45:35;5.63;;;1.15;;
14118;SDS011;7138;49.246;9.100;2023-04-01T01:48:08;5.28;;;0.70;;
14118;SDS011;7138;49.246;9.100;2023-04-01T01:50:37;4.72;;;0.70;;
14118;SDS011;7138;49.246;9.100;2023-04-01T01:53:07;6.13;;;0.95;;
14118;SDS011;7138;49.246;9.100;2023-04-01T01:55:36;4.72;;;0.60;;
14118;SDS011;7138;49.246;9.100;2023-04-01T01:58:05;6.47;;;0.70;;
14118;SDS011;7138;49.246;9.100;2023-04-01T02:00:38;3.55;;;0.70;;
14118;SDS011;7138;49.246;9.100;2023-04-01T02:03:07;5.05;;;0.80;;
14118;SDS011;7138;49.246;9.100;2023-04-01T02:05:35;5.65;;;0.80;;
14118;SDS011;7138;49.246;9.100;2023-04-01T02:08:05;5.13;;;0.57;;
14118;SDS011;7138;49.246;9.100;2023-04-01T02:10:39;3.55;;;0.50;;
14118;SDS011;7138;49.246;9.100;2023-04-01T02:13:12;4.43;;;0.73;;
14118;SDS011;7138;49.246;9.100;2023-04-01T02:15:45;6.03;;;0.60;;
14118;SDS011;7138;49.246;9.100;2023-04-01T02:18:15;6.38;;;0.80;;
14118;SDS011;7138;49.246;9.100;2023-04-01T02:20:46;4.88;;;0.90;;
14118;SDS011;7138;49.246;9.100;2023-04-01T02:23:13;5.53;;;0.60;;
14118;SDS011;7138;49.246;9.100;2023-04-01T02:25:40;3.97;;;0.55;;
14118;SDS011;7138;49.246;9.100;2023-04-01T02:28:09;3.58;;;0.70;;
14118;SDS011;7138;49.246;9.100;2023-04-01T02:30:41;5.53;;;0.88;;
14118;SDS011;7138;49.246;9.100;2023-04-01T02:33:09;4.20;;;0.60;;
14118;SDS011;7138;49.246;9.100;2023-04-01T02:35:36;3.53;;;0.68;;
14118;SDS011;7138;49.246;9.100;2023-04-01T02:38:03;3.60;;;0.52;;
14118;SDS011;7138;49.246;9.100;2023-04-01T02:40:40;3.15;;;0.50;;
14118;SDS011;7138;49.246;9.100;2023-04-01T02:43:09;4.22;;;0.68;;
14118;SDS011;7138;49.246;9.100;2023-04-01T02:45:35;4.18;;;0.68;;
14118;SDS011;7138;49.246;9.100;2023-04-01T02:48:01;2.92;;;0.55;;
14118;SDS011;7138;49.246;9.100;2023-04-01T02:50:26;3.17;;;0.88;;
14118;SDS011;7138;49.246;9.100;2023-04-01T02:52:52;3.60;;;0.43;;
14118;SDS011;7138;49.246;9.100;2023-04-01T02:55:19;3.38;;;0.40;;
14118;SDS011;7138;49.246;9.100;2023-04-01T02:57:45;3.83;;;0.60;;
14118;SDS011;7138;49.246;9.100;2023-04-01T03:00:12;2.95;;;0.43;;
14118;SDS011;7138;49.246;9.100;2023-04-01T03:02:39;3.88;;;0.60;;
14118;SDS011;7138;49.246;9.100;2023-04-01T03:05:05;3.22;;;0.57;;
14118;SDS011;7138;49.246;9.100;2023-04-01T03:07:32;7.05;;;0.60;;
14118;SDS011;7138;49.246;9.100;2023-04-01T03:09:58;4.63;;;0.70;;
14118;SDS011;7138;49.246;9.100;2023-04-01T03:12:25;2.70;;;0.50;;
14118;SDS011;7138;49.246;9.100;2023-04-01T03:14:51;5.13;;;0.80;;
14118;SDS011;7138;49.246;9.100;2023-04-01T03:17:17;1.80;;;0.38;;
14118;SDS011;7138;49.246;9.100;2023-04-01T03:19:42;1.48;;;0.43;;
14118;SDS011;7138;49.246;9.100;2023-04-01T03:22:09;4.15;;;0.50;;
14118;SDS011;7138;49.246;9.100;2023-04-01T03:24:36;4.30;;;0.52;;
14118;SDS011;7138;49.246;9.100;2023-04-01T03:27:02;4.05;;;0.60;;
14118;SDS011;7138;49.246;9.100;2023-04-01T03:29:29;4.63;;;0.70;;
14118;SDS011;7138;49.246;9.100;2023-04-01T03:31:55;4.35;;;0.73;;
14118;SDS011;7138;49.246;9.100;2023-04-01T03:34:22;3.22;;;0.43;;
14118;SDS011;7138;49.246;9.100;2023-04-01T03:36:48;3.97;;;0.50;;
14118;SDS011;7138;49.246;9.100;2023-04-01T03:39:16;4.80;;;0.47;;
14118;SDS011;7138;49.246;9.100;2023-04-01T03:41:43;4.20;;;0.50;;
14118;SDS011;7138;49.246;9.100;2023-04-01T03:44:10;3.40;;;0.52;;
14118;SDS011;7138;49.246;9.100;2023-04-01T03:46:37;2.05;;;0.40;;
14118;SDS011;7138;49.246;9.100;2023-04-01T03:49:05;2.42;;;0.40;;
14118;SDS011;7138;49.246;9.100;2023-04-01T03:51:36;3.25;;;0.52;;
14118;SDS011;7138;49.246;9.100;2023-04-01T03:54:03;3.42;;;0.52;;
14118;SDS011;7138;49.246;9.100;2023-04-01T03:56:29;2.65;;;0.50;;
14118;SDS011;7138;49.246;9.100;2023-04-01T03:58:55;2.38;;;0.50;;
14118;SDS011;7138;49.246;9.100;2023-04-01T04:01:21;6.65;;;0.68;;
14118;SDS011;7138;49.246;9.100;2023-04-01T04:03:49;1.60;;;0.43;;
14118;SDS011;7138;49.246;9.100;2023-04-01T04:06:16;4.07;;;0.63;;
14118;SDS011;7138;49.246;9.100;2023-04-01T04:08:43;5.10;;;0.50;;
14118;SDS011;7138;49.246;9.100;2023-04-01T04:11:09;5.82;;;0.70;;
14118;SDS011;7138;49.246;9.100;2023-04-01T04:13:35;2.75;;;0.50;;
14118;SDS011;7138;49.246;9.100;2023-04-01T04:16:01;2.22;;;0.40;;
14118;SDS011;7138;49.246;9.100;2023-04-01T04:18:28;2.85;;;0.40;;
14118;SDS011;7138;49.246;9.100;2023-04-01T04:20:55;3.97;;;0.50;;
14118;SDS011;7138;49.246;9.100;2023-04-01T04:23:21;3.92;;;0.63;;
14118;SDS011;7138;49.246;9.100;2023-04-01T04:25:54;4.90;;;0.60;;
14118;SDS011;7138;49.246;9.100;2023-04-01T04:28:22;4.55;;;0.50;;
14118;SDS011;7138;49.246;9.100;2023-04-01T04:30:48;4.88;;;0.50;;
14118;SDS011;7138;49.246;9.100;2023-04-01T04:33:14;4.07;;;0.60;;
14118;SDS011;7138;49.246;9.100;2023-04-01T04:35:40;5.43;;;0.50;;
14118;SDS011;7138;49.246;9.100;2023-04-01T04:38:07;2.80;;;0.50;;
14118;SDS011;7138;49.246;9.100;2023-04-01T04:40:34;2.65;;;0.45;;
14118;SDS011;7138;49.246;9.100;2023-04-01T04:43:01;4.00;;;0.50;;
14118;SDS011;7138;49.246;9.100;2023-04-01T04:45:27;2.00;;;0.47;;
14118;SDS011;7138;49.246;9.100;2023-04-01T04:47:53;2.50;;;0.60;;
14118;SDS011;7138;49.246;9.100;2023-04-01T04:50:19;3.58;;;0.57;;
14118;SDS011;7138;49.246;9.100;2023-04-01T04:52:45;4.65;;;0.98;;
14118;SDS011;7138;49.246;9.100;2023-04-01T04:55:12;3.50;;;1.40;;
14118;SDS011;7138;49.246;9.100;2023-04-01T04:57:39;1.50;;;0.45;;
14118;SDS011;7138;49.246;9.100;2023-04-01T05:00:06;4.97;;;0.88;;
14118;SDS011;7138;49.246;9.100;2023-04-01T05:02:35;6.63;;;0.73;;
14118;SDS011;7138;49.246;9.100;2023-04-01T05:05:01;3.63;;;0.60;;
14118;SDS011;7138;49.246;9.100;2023-04-01T05:07:27;4.65;;;0.43;;
14118;SDS011;7138;49.246;9.100;2023-04-01T05:09:53;3.30;;;0.50;;
14118;SDS011;7138;49.246;9.100;2023-04-01T05:12:20;4.30;;;0.50;;
14118;SDS011;7138;49.246;9.100;2023-04-01T05:14:46;6.28;;;1.00;;
14118;SDS011;7138;49.246;9.100;2023-04-01T05:17:12;4.97;;;0.77;;
14118;SDS011;7138;49.246;9.100;2023-04-01T05:19:38;5.68;;;0.80;;
14118;SDS011;7138;49.246;9.100;2023-04-01T05:22:05;4.55;;;0.85;;
14118;SDS011;7138;49.246;9.100;2023-04-01T05:24:31;3.13;;;0.50;;
14118;SDS011;7138;49.246;9.100;2023-04-01T05:26:59;3.47;;;0.60;;
14118;SDS011;7138;49.246;9.100;2023-04-01T05:29:26;2.67;;;0.60;;
14118;SDS011;7138;49.246;9.100;2023-04-01T05:31:54;3.75;;;0.60;;
14118;SDS011;7138;49.246;9.100;2023-04-01T05:34:20;8.02;;;0.70;;
14118;SDS011;7138;49.246;9.100;2023-04-01T05:36:46;6.38;;;0.73;;
14118;SDS011;7138;49.246;9.100;2023-04-01T05:39:11;7.55;;;1.02;;
14118;SDS011;7138;49.246;9.100;2023-04-01T05:41:38;4.35;;;0.50;;
14118;SDS011;7138;49.246;9.100;2023-04-01T05:44:04;3.25;;;0.63;;
14118;SDS011;7138;49.246;9.100;2023-04-01T05:46:31;3.17;;;0.63;;
14118;SDS011;7138;49.246;9.100;2023-04-01T05:48:57;3.17;;;0.65;;
14118;SDS011;7138;49.246;9.100;2023-04-01T05:51:23;5.03;;;0.68;;
14118;SDS011;7138;49.246;9.100;2023-04-01T05:53:49;5.93;;;0.88;;
14118;SDS011;7138;49.246;9.100;2023-04-01T05:56:15;2.78;;;0.60;;
14118;SDS011;7138;49.246;9.100;2023-04-01T05:58:41;4.07;;;0.90;;
14118;SDS011;7138;49.246;9.100;2023-04-01T06:01:08;4.45;;;0.82;;
14118;SDS011;7138;49.246;9.100;2023-04-01T06:03:37;4.15;;;0.90;;
14118;SDS011;7138;49.246;9.100;2023-04-01T06:06:03;4.53;;;0.70;;
14118;SDS011;7138;49.246;9.100;2023-04-01T06:08:39;3.45;;;0.50;;
14118;SDS011;7138;49.246;9.100;2023-04-01T06:11:10;4.63;;;0.70;;
14118;SDS011;7138;49.246;9.100;2023-04-01T06:14:02;3.95;;;0.90;;
14118;SDS011;7138;49.246;9.100;2023-04-01T06:16:44;4.45;;;0.75;;
14118;SDS011;7138;49.246;9.100;2023-04-01T06:19:40;3.55;;;0.63;;
14118;SDS011;7138;49.246;9.100;2023-04-01T06:22:27;4.03;;;0.80;;
14118;SDS011;7138;49.246;9.100;2023-04-01T06:25:29;2.13;;;0.40;;
14118;SDS011;7138;49.246;9.100;2023-04-01T06:28:29;3.60;;;0.50;;
14118;SDS011;7138;49.246;9.100;2023-04-01T06:31:19;5.07;;;0.82;;
14118;SDS011;7138;49.246;9.100;2023-04-01T06:37:07;4.25;;;0.75;;
14118;SDS011;7138;49.246;9.100;2023-04-01T06:39:52;2.42;;;0.40;;
14118;SDS011;7138;49.246;9.100;2023-04-01T06:42:46;2.75;;;0.68;;
14118;SDS011;7138;49.246;9.100;2023-04-01T06:45:32;4.15;;;1.00;;
14118;SDS011;7138;49.246;9.100;2023-04-01T06:48:12;1.63;;;0.35;;
14118;SDS011;7138;49.246;9.100;2023-04-01T06:50:58;2.25;;;0.50;;
14118;SDS011;7138;49.246;9.100;2023-04-01T06:53:43;1.85;;;0.40;;
14118;SDS011;7138;49.246;9.100;2023-04-01T06:56:20;2.33;;;0.50;;
14118;SDS011;7138;49.246;9.100;2023-04-01T06:58:52;1.95;;;0.73;;
14118;SDS011;7138;49.246;9.100;2023-04-01T07:01:24;1.80;;;0.40;;
14118;SDS011;7138;49.246;9.100;2023-04-01T07:03:58;4.47;;;0.70;;
14118;SDS011;7138;49.246;9.100;2023-04-01T07:06:31;2.70;;;0.43;;
14118;SDS011;7138;49.246;9.100;2023-04-01T07:09:05;1.95;;;0.43;;
14118;SDS011;7138;49.246;9.100;2023-04-01T07:11:38;4.07;;;0.40;;
14118;SDS011;7138;49.246;9.100;2023-04-01T07:14:06;2.17;;;0.32;;
14118;SDS011;7138;49.246;9.100;2023-04-01T07:16:45;3.38;;;0.60;;
14118;SDS011;7138;49.246;9.100;2023-04-01T07:19:18;3.35;;;0.52;;
14118;SDS011;7138;49.246;9.100;2023-04-01T07:21:52;3.92;;;0.63;;
14118;SDS011;7138;49.246;9.100;2023-04-01T07:24:25;2.40;;;0.45;;
14118;SDS011;7138;49.246;9.100;2023-04-01T07:26:58;3.28;;;0.60;;
14118;SDS011;7138;49.246;9.100;2023-04-01T07:29:24;3.13;;;0.60;;
14118;SDS011;7138;49.246;9.100;2023-04-01T07:31:59;3.45;;;0.60;;
14118;SDS011;7138;49.246;9.100;2023-04-01T07:34:56;1.38;;;0.25;;
14118;SDS011;7138;49.246;9.100;2023-04-01T07:37:36;2.08;;;0.50;;
14118;SDS011;7138;49.246;9.100;2023-04-01T07:40:17;1.52;;;0.28;;
14118;SDS011;7138;49.246;9.100;2023-04-01T07:43:01;3.60;;;0.50;;
14118;SDS011;7138;49.246;9.100;2023-04-01T07:45:48;3.13;;;0.40;;
14118;SDS011;7138;49.246;9.100;2023-04-01T07:48:26;2.55;;;0.40;;
14118;SDS011;7138;49.246;9.100;2023-04-01T07:51:00;2.20;;;0.30;;
14118;SDS011;7138;49.246;9.100;2023-04-01T07:53:34;1.60;;;0.38;;
14118;SDS011;7138;49.246;9.100;2023-04-01T07:56:14;3.42;;;0.50;;
14118;SDS011;7138;49.246;9.100;2023-04-01T07:58:51;2.95;;;0.40;;
14118;SDS011;7138;49.246;9.100;2023-04-01T08:01:33;2.28;;;0.40;;
14118;SDS011;7138;49.246;9.100;2023-04-01T08:04:15;2.20;;;0.30;;
14118;SDS011;7138;49.246;9.100;2023-04-01T08:07:01;2.15;;;0.40;;
14118;SDS011;7138;49.246;9.100;2023-04-01T08:09:38;2.72;;;0.43;;
14118;SDS011;7138;49.246;9.100;2023-04-01T08:12:17;4.00;;;0.40;;
14118;SDS011;7138;49.246;9.100;2023-04-01T08:15:01;1.90;;;0.40;;
14118;SDS011;7138;49.246;9.100;2023-04-01T08:17:41;1.85;;;0.40;;
14118;SDS011;7138;49.246;9.100;2023-04-01T08:20:25;1.75;;;0.40;;
14118;SDS011;7138;49.246;9.100;2023-04-01T08:23:00;1.23;;;0.30;;
14118;SDS011;7138;49.246;9.100;2023-04-01T08:25:37;2.22;;;0.38;;
14118;SDS011;7138;49.246;9.100;2023-04-01T08:28:13;2.78;;;0.30;;
14118;SDS011;7138;49.246;9.100;2023-04-01T08:30:47;1.70;;;0.43;;
14118;SDS011;7138;49.246;9.100;2023-04-01T08:33:21;2.70;;;0.50;;
14118;SDS011;7138;49.246;9.100;2023-04-01T08:35:53;2.30;;;0.43;;
14118;SDS011;7138;49.246;9.100;2023-04-01T08:38:28;1.05;;;0.30;;
14118;SDS011;7138;49.246;9.100;2023-04-01T08:40:59;2.00;;;0.70;;
14118;SDS011;7138;49.246;9.100;2023-04-01T08:43:59;1.30;;;0.35;;
14118;SDS011;7138;49.246;9.100;2023-04-01T08:47:13;1.27;;;0.30;;
14118;SDS011;7138;49.246;9.100;2023-04-01T08:50:04;1.10;;;0.30;;
14118;SDS011;7138;49.246;9.100;2023-04-01T08:52:52;2.97;;;0.45;;
14118;SDS011;7138;49.246;9.100;2023-04-01T08:55:36;2.22;;;0.32;;
14118;SDS011;7138;49.246;9.100;2023-04-01T09:01:39;2.25;;;0.70;;
14118;SDS011;7138;49.246;9.100;2023-04-01T09:04:47;1.40;;;0.30;;
14118;SDS011;7138;49.246;9.100;2023-04-01T09:07:39;2.30;;;0.43;;
14118;SDS011;7138;49.246;9.100;2023-04-01T09:10:30;3.60;;;0.30;;
14118;SDS011;7138;49.246;9.100;2023-04-01T09:13:29;2.40;;;0.30;;
14118;SDS011;7138;49.246;9.100;2023-04-01T09:16:55;1.42;;;0.40;;
14118;SDS011;7138;49.246;9.100;2023-04-01T09:23:28;3.67;;;0.40;;
14118;SDS011;7138;49.246;9.100;2023-04-01T09:26:17;3.13;;;0.20;;
14118;SDS011;7138;49.246;9.100;2023-04-01T09:29:12;1.67;;;0.25;;
14118;SDS011;7138;49.246;9.100;2023-04-01T09:32:09;2.13;;;0.38;;
14118;SDS011;7138;49.246;9.100;2023-04-01T09:35:06;3.17;;;0.40;;
14118;SDS011;7138;49.246;9.100;2023-04-01T09:37:51;1.48;;;0.30;;
14118;SDS011;7138;49.246;9.100;2023-04-01T09:40:31;3.72;;;0.52;;
14118;SDS011;7138;49.246;9.100;2023-04-01T09:43:25;2.28;;;0.30;;
14118;SDS011;7138;49.246;9.100;2023-04-01T09:45:58;1.95;;;0.30;;
14118;SDS011;7138;49.246;9.100;2023-04-01T09:48:46;3.35;;;0.40;;
14118;SDS011;7138;49.246;9.100;2023-04-01T09:52:09;1.15;;;0.22;;
14118;SDS011;7138;49.246;9.100;2023-04-01T09:54:58;2.38;;;0.20;;
14118;SDS011;7138;49.246;9.100;2023-04-01T09:57:52;2.00;;;0.30;;
14118;SDS011;7138;49.246;9.100;2023-04-01T10:01:29;1.08;;;0.40;;
14118;SDS011;7138;49.246;9.100;2023-04-01T10:04:22;3.78;;;0.40;;
14118;SDS011;7138;49.246;9.100;2023-04-01T10:07:50;0.98;;;0.20;;
14118;SDS011;7138;49.246;9.100;2023-04-01T10:10:55;1.35;;;0.47;;
14118;SDS011;7138;49.246;9.100;2023-04-01T10:14:05;2.00;;;0.40;;
14118;SDS011;7138;49.246;9.100;2023-04-01T10:17:14;1.70;;;0.30;;
14118;SDS011;7138;49.246;9.100;2023-04-01T10:20:33;1.05;;;0.20;;
14118;SDS011;7138;49.246;9.100;2023-04-01T10:26:30;1.85;;;0.50;;
14118;SDS011;7138;49.246;9.100;2023-04-01T10:29:40;1.90;;;0.40;;
14118;SDS011;7138;49.246;9.100;2023-04-01T10:33:08;1.05;;;0.30;;
14118;SDS011;7138;49.246;9.100;2023-04-01T10:36:42;1.15;;;0.30;;
14118;SDS011;7138;49.246;9.100;2023-04-01T10:39:33;0.90;;;0.25;;
14118;SDS011;7138;49.246;9.100;2023-04-01T10:45:59;1.40;;;0.40;;
14118;SDS011;7138;49.246;9.100;2023-04-01T10:49:32;1.48;;;0.43;;
14118;SDS011;7138;49.246;9.100;2023-04-01T10:52:19;1.67;;;0.40;;
14118;SDS011;7138;49.246;9.100;2023-04-01T10:55:36;1.27;;;0.38;;
14118;SDS011;7138;49.246;9.100;2023-04-01T10:58:32;0.95;;;0.30;;
14118;SDS011;7138;49.246;9.100;2023-04-01T11:02:12;1.38;;;0.40;;
14118;SDS011;7138;49.246;9.100;2023-04-01T11:09:21;1.13;;;0.20;;
14118;SDS011;7138;49.246;9.100;2023-04-01T11:12:52;2.20;;;0.50;;
14118;SDS011;7138;49.246;9.100;2023-04-01T11:16:05;0.85;;;0.32;;
14118;SDS011;7138;49.246;9.100;2023-04-01T11:19:10;2.90;;;0.65;;
14118;SDS011;7138;49.246;9.100;2023-04-01T11:25:16;1.05;;;0.20;;
14118;SDS011;7138;49.246;9.100;2023-04-01T11:28:08;2.03;;;0.50;;
14118;SDS011;7138;49.246;9.100;2023-04-01T11:31:04;4.40;;;0.40;;
14118;SDS011;7138;49.246;9.100;2023-04-01T11:33:52;1.05;;;0.30;;
14118;SDS011;7138;49.246;9.100;2023-04-01T11:36:29;2.35;;;0.32;;
14118;SDS011;7138;49.246;9.100;2023-04-01T11:39:14;2.15;;;0.60;;
14118;SDS011;7138;49.246;9.100;2023-04-01T11:41:58;1.35;;;0.35;;
14118;SDS011;7138;49.246;9.100;2023-04-01T11:44:39;3.28;;;0.40;;
14118;SDS011;7138;49.246;9.100;2023-04-01T11:47:19;2.38;;;0.50;;
14118;SDS011;7138;49.246;9.100;2023-04-01T11:50:15;1.25;;;0.40;;
14118;SDS011;7138;49.246;9.100;2023-04-01T11:53:00;1.77;;;0.30;;
14118;SDS011;7138;49.246;9.100;2023-04-01T11:55:38;2.20;;;0.65;;
14118;SDS011;7138;49.246;9.100;2023-04-01T11:58:29;1.73;;;0.45;;
14118;SDS011;7138;49.246;9.100;2023-04-01T12:01:43;0.98;;;0.30;;
14118;SDS011;7138;49.246;9.100;2023-04-01T12:04:40;2.08;;;0.50;;
14118;SDS011;7138;49.246;9.100;2023-04-01T12:07:27;1.77;;;0.30;;
14118;SDS011;7138;49.246;9.100;2023-04-01T12:10:18;1.65;;;0.30;;
14118;SDS011;7138;49.246;9.100;2023-04-01T12:12:52;1.73;;;0.40;;
14118;SDS011;7138;49.246;9.100;2023-04-01T12:15:29;3.03;;;0.30;;
14118;SDS011;7138;49.246;9.100;2023-04-01T12:18:13;2.92;;;0.43;;
14118;SDS011;7138;49.246;9.100;2023-04-01T12:20:49;2.97;;;0.60;;
14118;SDS011;7138;49.246;9.100;2023-04-01T12:23:28;3.17;;;0.50;;
14118;SDS011;7138;49.246;9.100;2023-04-01T12:29:18;1.38;;;0.40;;
14118;SDS011;7138;49.246;9.100;2023-04-01T12:32:12;1.75;;;0.40;;
14118;SDS011;7138;49.246;9.100;2023-04-01T12:34:53;2.00;;;0.47;;
14118;SDS011;7138;49.246;9.100;2023-04-01T12:37:45;0.77;;;0.22;;
14118;SDS011;7138;49.246;9.100;2023-04-01T12:40:29;2.13;;;0.45;;
14118;SDS011;7138;49.246;9.100;2023-04-01T12:43:25;2.70;;;0.40;;
14118;SDS011;7138;49.246;9.100;2023-04-01T12:46:12;1.17;;;0.20;;
14118;SDS011;7138;49.246;9.100;2023-04-01T12:49:01;1.20;;;0.35;;
14118;SDS011;7138;49.246;9.100;2023-04-01T12:52:00;1.15;;;0.30;;
14118;SDS011;7138;49.246;9.100;2023-04-01T12:54:41;1.20;;;0.40;;
14118;SDS011;7138;49.246;9.100;2023-04-01T13:00:53;1.05;;;0.30;;
14118;SDS011;7138;49.246;9.100;2023-04-01T13:04:00;1.75;;;0.30;;
14118;SDS011;7138;49.246;9.100;2023-04-01T13:07:15;1.67;;;0.30;;
14118;SDS011;7138;49.246;9.100;2023-04-01T13:10:10;2.25;;;0.50;;
14118;SDS011;7138;49.246;9.100;2023-04-01T13:12:56;1.35;;;0.40;;
14118;SDS011;7138;49.246;9.100;2023-04-01T13:15:40;1.85;;;0.40;;
14118;SDS011;7138;49.246;9.100;2023-04-01T13:18:16;1.58;;;0.35;;
14118;SDS011;7138;49.246;9.100;2023-04-01T13:20:57;1.17;;;0.30;;
14118;SDS011;7138;49.246;9.100;2023-04-01T13:23:35;1.83;;;0.45;;
14118;SDS011;7138;49.246;9.100;2023-04-01T13:26:22;2.10;;;0.40;;
14118;SDS011;7138;49.246;9.100;2023-04-01T13:29:01;1.08;;;0.38;;
14118;SDS011;7138;49.246;9.100;2023-04-01T13:31:38;1.42;;;0.45;;
14118;SDS011;7138;49.246;9.100;2023-04-01T13:34:27;2.17;;;0.50;;
14118;SDS011;7138;49.246;9.100;2023-04-01T13:37:11;1.33;;;0.40;;
14118;SDS011;7138;49.246;9.100;2023-04-01T13:42:56;1.88;;;0.60;;
14118;SDS011;7138;49.246;9.100;2023-04-01T13:45:29;1.48;;;0.35;;
14118;SDS011;7138;49.246;9.100;2023-04-01T13:51:40;1.80;;;0.30;;
14118;SDS011;7138;49.246;9.100;2023-04-01T13:54:41;3.17;;;0.55;;
14118;SDS011;7138;49.246;9.100;2023-04-01T13:57:43;0.88;;;0.30;;
14118;SDS011;7138;49.246;9.100;2023-04-01T14:00:32;1.70;;;0.50;;
14118;SDS011;7138;49.246;9.100;2023-04-01T14:03:20;2.20;;;0.35;;
14118;SDS011;7138;49.246;9.100;2023-04-01T14:06:02;3.40;;;0.40;;
14118;SDS011;7138;49.246;9.100;2023-04-01T14:08:47;2.55;;;0.47;;
14118;SDS011;7138;49.246;9.100;2023-04-01T14:12:04;2.08;;;0.50;;
14118;SDS011;7138;49.246;9.100;2023-04-01T14:14:43;1.35;;;0.40;;
14118;SDS011;7138;49.246;9.100;2023-04-01T14:17:35;2.00;;;0.25;;
14118;SDS011;7138;49.246;9.100;2023-04-01T14:20:25;1.92;;;0.68;;
14118;SDS011;7138;49.246;9.100;2023-04-01T14:23:07;1.45;;;0.50;;
14118;SDS011;7138;49.246;9.100;2023-04-01T14:26:02;3.20;;;0.40;;
14118;SDS011;7138;49.246;9.100;2023-04-01T14:28:58;0.73;;;0.25;;
14118;SDS011;7138;49.246;9.100;2023-04-01T14:34:36;1.63;;;0.40;;
14118;SDS011;7138;49.246;9.100;2023-04-01T14:40:24;4.30;;;0.60;;
14118;SDS011;7138;49.246;9.100;2023-04-01T14:43:12;1.58;;;0.30;;
14118;SDS011;7138;49.246;9.100;2023-04-01T14:46:07;2.42;;;0.50;;
14118;SDS011;7138;49.246;9.100;2023-04-01T14:49:14;1.88;;;0.47;;
14118;SDS011;7138;49.246;9.100;2023-04-01T14:51:46;0.80;;;0.32;;
14118;SDS011;7138;49.246;9.100;2023-04-01T14:54:15;2.00;;;0.45;;
14118;SDS011;7138;49.246;9.100;2023-04-01T14:56:49;1.90;;;0.50;;
14118;SDS011;7138;49.246;9.100;2023-04-01T14:59:25;1.55;;;0.50;;
14118;SDS011;7138;49.246;9.100;2023-04-01T15:01:57;1.23;;;0.43;;
14118;SDS011;7138;49.246;9.100;2023-04-01T15:04:33;2.33;;;0.43;;
14118;SDS011;7138;49.246;9.100;2023-04-01T15:10:41;2.10;;;0.55;;
14118;SDS011;7138;49.246;9.100;2023-04-01T15:16:54;1.63;;;0.35;;
14118;SDS011;7138;49.246;9.100;2023-04-01T15:19:37;1.08;;;0.30;;
14118;SDS011;7138;49.246;9.100;2023-04-01T15:22:26;1.05;;;0.30;;
14118;SDS011;7138;49.246;9.100;2023-04-01T15:25:20;1.23;;;0.30;;
14118;SDS011;7138;49.246;9.100;2023-04-01T15:28:03;1.33;;;0.38;;
14118;SDS011;7138;49.246;9.100;2023-04-01T15:30:45;1.73;;;0.40;;
14118;SDS011;7138;49.246;9.100;2023-04-01T15:33:26;0.90;;;0.45;;
14118;SDS011;7138;49.246;9.100;2023-04-01T15:36:10;1.38;;;0.40;;
14118;SDS011;7138;49.246;9.100;2023-04-01T15:38:54;1.30;;;0.40;;
14118;SDS011;7138;49.246;9.100;2023-04-01T15:41:35;2.08;;;0.50;;
14118;SDS011;7138;49.246;9.100;2023-04-01T15:44:34;2.00;;;0.60;;
14118;SDS011;7138;49.246;9.100;2023-04-01T15:47:29;2.03;;;0.60;;
14118;SDS011;7138;49.246;9.100;2023-04-01T15:53:26;1.38;;;0.50;;
14118;SDS011;7138;49.246;9.100;2023-04-01T15:56:20;2.15;;;0.50;;
14118;SDS011;7138;49.246;9.100;2023-04-01T15:58:59;2.80;;;0.55;;
14118;SDS011;7138;49.246;9.100;2023-04-01T16:01:44;2.35;;;0.57;;
14118;SDS011;7138;49.246;9.100;2023-04-01T16:04:29;3.10;;;0.52;;
14118;SDS011;7138;49.246;9.100;2023-04-01T16:07:15;2.75;;;0.55;;
14118;SDS011;7138;49.246;9.100;2023-04-01T16:10:32;3.00;;;0.50;;
14118;SDS011;7138;49.246;9.100;2023-04-01T16:13:24;3.40;;;0.93;;
14118;SDS011;7138;49.246;9.100;2023-04-01T16:16:09;2.50;;;0.70;;
14118;SDS011;7138;49.246;9.100;2023-04-01T16:22:14;3.15;;;0.50;;
14118;SDS011;7138;49.246;9.100;2023-04-01T16:24:48;3.22;;;0.50;;
14118;SDS011;7138;49.246;9.100;2023-04-01T16:27:27;1.63;;;0.55;;
14118;SDS011;7138;49.246;9.100;2023-04-01T16:33:01;4.03;;;0.77;;
14118;SDS011;7138;49.246;9.100;2023-04-01T16:35:37;2.40;;;0.68;;
14118;SDS011;7138;49.246;9.100;2023-04-01T16:38:15;4.20;;;1.35;;
14118;SDS011;7138;49.246;9.100;2023-04-01T16:40:52;2.58;;;0.50;;
14118;SDS011;7138;49.246;9.100;2023-04-01T16:43:43;2.58;;;0.57;;
14118;SDS011;7138;49.246;9.100;2023-04-01T16:46:20;2.20;;;0.70;;
14118;SDS011;7138;49.246;9.100;2023-04-01T16:52:15;4.15;;;0.93;;
14118;SDS011;7138;49.246;9.100;2023-04-01T16:54:55;3.33;;;0.73;;
14118;SDS011;7138;49.246;9.100;2023-04-01T16:57:27;2.25;;;0.70;;
14118;SDS011;7138;49.246;9.100;2023-04-01T17:00:16;3.65;;;0.80;;
14118;SDS011;7138;49.246;9.100;2023-04-01T17:02:52;2.63;;;0.88;;
14118;SDS011;7138;49.246;9.100;2023-04-01T17:05:38;3.15;;;1.00;;
14118;SDS011;7138;49.246;9.100;2023-04-01T17:08:15;2.35;;;0.70;;
14118;SDS011;7138;49.246;9.100;2023-04-01T17:10:54;3.33;;;0.80;;
14118;SDS011;7138;49.246;9.100;2023-04-01T17:13:33;3.65;;;0.60;;
14118;SDS011;7138;49.246;9.100;2023-04-01T17:19:14;2.28;;;0.68;;
14118;SDS011;7138;49.246;9.100;2023-04-01T17:22:01;4.45;;;0.90;;
14118;SDS011;7138;49.246;9.100;2023-04-01T17:24:42;2.78;;;1.02;;
14118;SDS011;7138;49.246;9.100;2023-04-01T17:27:28;4.18;;;0.82;;
14118;SDS011;7138;49.246;9.100;2023-04-01T17:30:11;4.30;;;1.00;;
14118;SDS011;7138;49.246;9.100;2023-04-01T17:33:10;2.65;;;0.90;;